createdAt,value
2022-11-28T00:01:51.854Z,87.70
2022-11-28T00:05:16.954Z,87.70
2022-11-28T00:08:40.746Z,87.70
2022-11-28T00:12:04.855Z,87.90
2022-11-28T00:15:28.479Z,87.80
2022-11-28T00:18:53.993Z,87.80
2022-11-28T00:22:18.942Z,87.90
2022-11-28T00:25:42.625Z,87.40
2022-11-28T00:29:08.436Z,87.40
2022-11-28T00:32:32.073Z,87.50
2022-11-28T00:36:00.710Z,87.30
2022-11-28T00:39:25.624Z,87.60
2022-11-28T00:42:49.173Z,87.70
2022-11-28T00:46:15.463Z,88.00
2022-11-28T00:49:39.422Z,88.10
2022-11-28T00:53:03.031Z,88.00
2022-11-28T00:56:31.989Z,87.90
2022-11-28T00:59:55.515Z,87.70
2022-11-28T01:03:19.226Z,87.80
2022-11-28T01:06:46.457Z,87.70
2022-11-28T01:10:13.175Z,87.60
2022-11-28T01:13:38.183Z,87.40
2022-11-28T01:17:01.818Z,87.30
2022-11-28T01:20:25.422Z,87.30
2022-11-28T01:23:49.998Z,87.30
2022-11-28T01:30:38.940Z,84.20
2022-11-28T01:34:02.718Z,87.40
2022-11-28T01:37:26.258Z,87.00
2022-11-28T01:40:49.902Z,87.00
2022-11-28T01:45:10.042Z,86.80
2022-11-28T01:52:13.079Z,84.20
2022-11-28T01:55:44.290Z,86.30
2022-11-28T01:59:11.182Z,85.80
2022-11-28T02:02:40.324Z,84.00
2022-11-28T02:06:06.028Z,85.80
2022-11-28T02:13:22.449Z,85.20
2022-11-28T02:21:24.863Z,84.80
2022-11-28T02:29:11.006Z,84.80
2022-11-28T02:33:17.574Z,84.50
2022-11-28T02:36:48.515Z,85.90
2022-11-28T03:04:54.154Z,86.10
2022-11-28T03:08:37.037Z,85.60
2022-11-28T03:12:16.873Z,85.70
2022-11-28T03:16:07.181Z,85.60
2022-11-28T03:19:38.694Z,85.30
2022-11-28T03:23:17.180Z,85.40
2022-11-28T03:30:20.444Z,85.40
2022-11-28T03:37:19.018Z,85.30
2022-11-28T03:44:20.242Z,83.90
2022-11-28T03:47:48.698Z,86.20
2022-11-28T03:51:18.929Z,86.50
2022-11-28T03:54:50.642Z,86.50
2022-11-28T03:58:25.637Z,85.60
2022-11-28T04:02:02.874Z,85.30
2022-11-28T04:12:49.151Z,85.10
2022-11-28T04:16:20.706Z,84.00
2022-11-28T04:19:52.980Z,85.90
2022-11-28T04:23:21.429Z,86.10
2022-11-28T04:26:49.893Z,86.20
2022-11-28T04:30:14.834Z,84.90
2022-11-28T04:33:45.746Z,85.70
2022-11-28T04:37:14.341Z,85.70
2022-11-28T04:51:17.630Z,84.60
2022-11-28T05:01:48.381Z,85.00
2022-11-28T05:05:17.634Z,85.40
2022-11-28T05:08:42.185Z,85.60
2022-11-28T05:12:08.148Z,85.70
2022-11-28T05:25:43.478Z,85.40
2022-11-28T05:35:56.681Z,84.10
2022-11-28T05:42:44.151Z,84.20
2022-11-28T05:46:09.390Z,85.50
2022-11-28T05:52:56.976Z,84.00
2022-11-28T05:56:23.918Z,86.30
2022-11-28T05:59:47.374Z,86.80
2022-11-28T06:03:12.319Z,86.80
2022-11-28T06:06:37.362Z,87.10
2022-11-28T06:10:01.088Z,87.40
2022-11-28T06:13:24.991Z,87.60
2022-11-28T06:16:48.626Z,87.70
2022-11-28T06:23:38.573Z,84.70
2022-11-28T06:37:15.420Z,83.90
2022-11-28T06:40:39.826Z,85.70
2022-11-28T06:44:03.338Z,86.30
2022-11-28T06:47:26.923Z,86.20
2022-11-28T06:57:40.402Z,84.00
2022-11-28T07:01:09.631Z,85.80
2022-11-28T07:04:33.601Z,86.20
2022-11-28T07:07:57.339Z,86.40
2022-11-28T07:14:48.446Z,84.20
2022-11-28T07:18:11.950Z,86.20
2022-11-28T07:28:24.613Z,83.80
2022-11-28T07:31:48.196Z,85.80
2022-11-28T07:35:12.419Z,86.30
2022-11-28T07:38:36.011Z,86.70
2022-11-28T07:41:59.596Z,87.30
2022-11-28T07:45:33.015Z,88.40
2022-11-28T07:49:07.952Z,87.90
2022-11-28T07:52:31.421Z,88.30
2022-11-28T07:55:54.948Z,88.40
2022-11-28T07:59:18.521Z,88.40
2022-11-28T08:02:43.465Z,88.50
2022-11-28T08:06:09.029Z,88.30
2022-11-28T08:09:32.927Z,88.60
2022-11-28T08:12:56.361Z,89.00
2022-11-28T08:16:23.243Z,89.00
2022-11-28T08:19:48.127Z,89.10
2022-11-28T08:23:11.700Z,89.20
2022-11-28T08:26:36.531Z,89.60
2022-11-28T08:29:59.965Z,90.00
2022-11-28T08:33:24.060Z,90.10
2022-11-28T08:36:49.103Z,90.20
2022-11-28T08:40:13.831Z,90.30
2022-11-28T08:43:39.213Z,90.40
2022-11-28T08:47:02.770Z,90.50
2022-11-28T08:50:26.234Z,90.70
2022-11-28T08:53:57.902Z,90.80
2022-11-28T08:57:23.020Z,90.40
2022-11-28T09:00:46.768Z,90.30
2022-11-28T09:04:10.323Z,90.40
2022-11-28T09:07:33.857Z,90.40
2022-11-28T09:10:58.763Z,90.20
2022-11-28T09:14:22.348Z,90.30
2022-11-28T09:17:45.945Z,90.50
2022-11-28T09:41:56.194Z,88.90
2022-11-28T09:48:55.645Z,87.70
2022-11-28T09:52:31.452Z,90.10
2022-11-28T09:56:01.486Z,90.60
2022-11-28T09:59:27.926Z,91.00
2022-11-28T10:03:33.665Z,91.20
2022-11-28T10:07:07.585Z,90.90
2022-11-28T10:10:41.681Z,91.40
2022-11-28T10:14:23.391Z,91.40
2022-11-28T10:18:02.824Z,91.40
2022-11-28T10:21:38.012Z,91.00
2022-11-28T10:25:13.412Z,91.00
2022-11-28T10:28:43.336Z,90.50
2022-11-28T10:32:08.378Z,90.50
2022-11-28T10:39:12.596Z,86.70
2022-11-28T10:42:52.660Z,89.80
2022-11-28T10:46:47.814Z,89.80
2022-11-28T10:50:21.126Z,89.60
2022-11-28T10:54:04.348Z,90.60
2022-11-28T10:57:37.001Z,90.40
2022-11-28T11:01:01.376Z,90.70
2022-11-28T11:04:28.288Z,91.00
2022-11-28T11:07:55.709Z,91.00
2022-11-28T11:14:51.217Z,87.20
2022-11-28T11:18:26.173Z,90.30
2022-11-28T11:22:02.237Z,90.30
2022-11-28T11:25:28.152Z,90.30
2022-11-28T11:28:53.776Z,90.70
2022-11-28T11:32:26.305Z,90.60
2022-11-28T11:35:50.907Z,90.50
2022-11-28T11:42:54.900Z,89.60
2022-11-28T11:46:19.924Z,90.10
2022-11-28T11:53:15.085Z,90.20
2022-11-28T12:10:54.630Z,88.70
2022-11-28T12:39:56.792Z,88.70
2022-11-28T12:57:44.002Z,89.40
2022-11-28T13:01:33.203Z,87.60
2022-11-28T13:05:25.777Z,89.80
2022-11-28T13:09:22.453Z,88.30
2022-11-28T13:12:59.233Z,90.10
2022-11-28T13:16:33.984Z,91.20
2022-11-28T13:20:13.718Z,91.40
2022-11-28T13:23:49.234Z,91.70
2022-11-28T13:27:32.334Z,91.90
2022-11-28T13:31:06.367Z,92.00
2022-11-28T13:34:31.331Z,92.10
2022-11-28T13:42:28.277Z,92.10
2022-11-28T13:45:46.954Z,92.10
2022-11-28T13:49:21.608Z,92.30
2022-11-28T13:52:45.378Z,92.50
2022-11-28T13:56:25.909Z,92.60
2022-11-28T14:00:01.380Z,92.00
2022-11-28T14:03:27.496Z,92.30
2022-11-28T14:07:00.948Z,92.20
2022-11-28T14:11:06.876Z,92.00
2022-11-28T14:15:03.986Z,91.70
2022-11-28T14:18:59.979Z,91.40
2022-11-28T14:22:46.573Z,91.50
2022-11-28T14:26:24.320Z,91.30
2022-11-28T14:29:53.289Z,91.20
2022-11-28T14:33:23.880Z,91.30
2022-11-28T14:36:49.528Z,91.20
2022-11-28T14:41:01.485Z,91.30
2022-11-28T14:44:50.576Z,90.80
2022-11-28T14:48:31.664Z,90.60
2022-11-28T14:52:38.394Z,90.60
2022-11-28T14:56:29.672Z,90.40
2022-11-28T14:59:58.110Z,90.50
2022-11-28T15:03:40.118Z,90.70
2022-11-28T15:07:09.097Z,90.60
2022-11-28T15:10:44.392Z,90.80
2022-11-28T15:14:22.828Z,90.70
2022-11-28T15:17:52.378Z,90.50
2022-11-28T15:21:20.380Z,90.70
2022-11-28T15:24:53.577Z,90.80
2022-11-28T15:28:20.481Z,90.50
2022-11-28T15:31:47.131Z,90.70
2022-11-28T15:35:17.381Z,90.80
2022-11-28T15:38:44.621Z,89.10
2022-11-28T15:42:20.171Z,90.70
2022-11-28T15:45:44.568Z,90.70
2022-11-28T15:49:30.378Z,90.80
2022-11-28T15:52:58.023Z,90.30
2022-11-28T15:56:21.646Z,90.60
2022-11-28T15:59:45.622Z,90.70
2022-11-28T16:03:16.784Z,90.90
2022-11-28T16:06:45.480Z,90.80
2022-11-28T16:10:25.437Z,90.80
2022-11-28T16:13:50.607Z,90.60
2022-11-28T16:17:23.284Z,90.70
2022-11-28T16:20:48.519Z,90.60
2022-11-28T16:24:26.556Z,90.70
2022-11-28T16:27:53.329Z,90.60
2022-11-28T16:31:24.020Z,90.60
2022-11-28T16:34:50.737Z,90.60
2022-11-28T16:38:19.179Z,90.70
2022-11-28T16:41:51.935Z,90.80
2022-11-28T16:48:50.190Z,89.10
2022-11-28T16:52:47.493Z,90.50
2022-11-28T16:56:25.446Z,90.40
2022-11-28T16:59:52.026Z,90.60
2022-11-28T17:03:58.470Z,90.90
2022-11-28T17:07:25.313Z,90.70
2022-11-28T17:10:50.395Z,91.00
2022-11-28T17:14:15.378Z,91.20
2022-11-28T17:17:39.039Z,91.30
2022-11-28T17:21:04.099Z,91.50
2022-11-28T17:24:34.493Z,91.40
2022-11-28T17:27:58.041Z,91.40
2022-11-28T17:31:23.826Z,91.30
2022-11-28T17:34:47.581Z,91.40
2022-11-28T17:38:12.846Z,91.30
2022-11-28T17:41:36.612Z,91.40
2022-11-28T17:45:00.155Z,90.50
2022-11-28T17:48:23.911Z,91.50
2022-11-28T17:51:47.869Z,91.60
2022-11-28T17:55:13.304Z,91.70
2022-11-28T17:58:37.196Z,91.70
2022-11-28T18:02:01.051Z,91.70
2022-11-28T18:05:25.068Z,91.70
2022-11-28T18:08:51.437Z,91.80
2022-11-28T18:12:16.834Z,91.80
2022-11-28T18:15:42.458Z,91.90
2022-11-28T18:19:06.156Z,92.10
2022-11-28T18:22:30.143Z,91.80
2022-11-28T18:25:53.846Z,91.90
2022-11-28T18:29:18.879Z,91.90
2022-11-28T18:32:42.437Z,91.80
2022-11-28T18:36:14.331Z,91.70
2022-11-28T18:39:37.848Z,91.50
2022-11-28T18:43:04.010Z,91.70
2022-11-28T18:46:30.852Z,91.80
2022-11-28T18:49:54.399Z,91.80
2022-11-28T18:53:17.923Z,91.80
2022-11-28T18:56:41.472Z,91.70
2022-11-28T19:00:08.359Z,91.90
2022-11-28T19:03:33.527Z,91.80
2022-11-28T19:06:57.651Z,91.90
2022-11-28T19:10:21.509Z,92.10
2022-11-28T19:13:47.699Z,92.20
2022-11-28T19:17:12.169Z,92.20
2022-11-28T19:20:43.339Z,92.10
2022-11-28T19:24:09.017Z,92.20
2022-11-28T19:27:33.348Z,92.30
2022-11-28T19:31:00.485Z,92.30
2022-11-28T19:34:24.123Z,92.20
2022-11-28T19:37:49.118Z,92.20
2022-11-28T19:41:16.127Z,92.20
2022-11-28T19:44:40.070Z,92.20
2022-11-28T19:48:04.448Z,92.50
2022-11-28T19:51:28.264Z,92.30
2022-11-28T19:54:54.584Z,92.40
2022-11-28T19:58:19.708Z,92.40
2022-11-28T20:01:43.829Z,92.30
2022-11-28T20:05:08.474Z,92.30
2022-11-28T20:08:33.294Z,92.10
2022-11-28T20:11:58.925Z,92.20
2022-11-28T20:15:24.125Z,92.20
2022-11-28T20:18:47.646Z,92.30
2022-11-28T20:22:11.376Z,92.40
2022-11-28T20:25:35.407Z,92.50
2022-11-28T20:29:00.760Z,92.50
2022-11-28T20:32:25.072Z,92.40
2022-11-28T20:35:48.809Z,92.40
2022-11-28T20:39:13.917Z,92.30
2022-11-28T20:42:39.964Z,92.40
2022-11-28T20:46:07.000Z,92.40
2022-11-28T20:49:30.589Z,92.40
2022-11-28T20:52:54.186Z,92.40
2022-11-28T20:56:21.657Z,92.30
2022-11-28T20:59:45.443Z,92.20
2022-11-28T21:03:11.092Z,92.10
2022-11-28T21:06:36.305Z,92.00
2022-11-28T21:10:00.498Z,92.40
2022-11-28T21:13:24.356Z,92.00
2022-11-28T21:16:47.975Z,92.10
2022-11-28T21:20:13.719Z,92.20
2022-11-28T21:23:38.085Z,92.20
2022-11-28T21:27:01.600Z,92.30
2022-11-28T21:30:25.091Z,92.30
2022-11-28T21:33:49.753Z,92.40
2022-11-28T21:37:14.652Z,92.30
2022-11-28T21:40:38.293Z,92.20
2022-11-28T21:44:02.073Z,92.40
2022-11-28T21:47:25.949Z,92.40
2022-11-28T21:50:50.608Z,92.40
2022-11-28T21:54:15.635Z,92.50
2022-11-28T21:57:42.851Z,92.40
2022-11-28T22:01:11.010Z,92.50
2022-11-28T22:04:35.157Z,92.40
2022-11-28T22:07:58.949Z,92.50
2022-11-28T22:11:24.936Z,92.50
2022-11-28T22:14:48.746Z,92.40
2022-11-28T22:18:13.455Z,92.40
2022-11-28T22:21:55.976Z,92.60
2022-11-28T22:25:21.012Z,92.50
2022-11-28T22:28:53.160Z,92.60
2022-11-28T22:32:18.206Z,92.60
2022-11-28T22:35:41.736Z,93.00
2022-11-28T22:39:06.109Z,92.60
2022-11-28T22:42:30.018Z,92.70
2022-11-28T22:45:59.709Z,92.60
2022-11-28T22:49:23.289Z,92.50
2022-11-28T22:52:46.889Z,92.50
2022-11-28T22:56:13.519Z,92.60
2022-11-28T22:59:38.542Z,92.50
2022-11-28T23:03:03.776Z,92.60
2022-11-28T23:06:31.672Z,92.60
2022-11-28T23:09:55.303Z,92.60
2022-11-28T23:13:18.992Z,92.70
2022-11-28T23:16:44.729Z,92.80
2022-11-28T23:20:11.329Z,92.70
2022-11-28T23:23:35.549Z,92.70
2022-11-28T23:26:59.013Z,92.90
2022-11-28T23:30:22.805Z,92.90
2022-11-28T23:33:47.609Z,92.90
2022-11-28T23:37:12.768Z,92.80
2022-11-28T23:40:36.218Z,92.80
2022-11-28T23:44:00.607Z,92.80
2022-11-28T23:47:24.077Z,92.90
2022-11-28T23:50:48.451Z,92.80
2022-11-28T23:54:13.649Z,92.80
2022-11-28T23:57:37.087Z,92.70
